Time;durP1;ratioP1;P1;durP2;ratioP2;P2;SDS_P1;SDS_P2;PMS_P1;PMS_P2;Temp;Humidity;BMP_temperature;BMP_pressure;BME280_temperature;BME280_humidity;BME280_pressure;Samples;Min_cycle;Max_cycle;Signal;HPM_P1;HPM_P2
2022/12/16 00:01:23;;;;;;;52.22;33.45;;;0.30;99.90;;;;;;5975516;23;20305;-83
2022/12/16 00:03:54;;;;;;;53.85;34.45;;;0.30;99.90;;;;;;5999139;23;20082;-83
2022/12/16 00:06:22;;;;;;;52.42;33.15;;;0.30;99.90;;;;;;5976384;23;20012;-83
2022/12/16 00:08:50;;;;;;;50.65;32.85;;;0.30;99.90;;;;;;5976623;23;20015;-82
2022/12/16 00:11:15;;;;;;;49.13;32.72;;;0.30;99.90;;;;;;5999276;23;20381;-82
2022/12/16 00:13:41;;;;;;;51.63;32.47;;;0.30;99.90;;;;;;5975075;23;20015;-83
2022/12/16 00:16:08;;;;;;;49.50;32.28;;;0.20;99.90;;;;;;5976391;23;20019;-83
2022/12/16 00:18:34;;;;;;;47.53;31.52;;;0.20;99.90;;;;;;5999269;23;20018;-83
2022/12/16 00:21:01;;;;;;;51.10;31.80;;;0.20;99.90;;;;;;5977052;23;20548;-83
2022/12/16 00:23:27;;;;;;;51.17;32.88;;;0.20;99.90;;;;;;5976563;23;20026;-83
2022/12/16 00:25:53;;;;;;;57.65;34.45;;;0.10;99.90;;;;;;5999902;23;20458;-83
2022/12/16 00:28:22;;;;;;;52.63;33.40;;;0.10;99.90;;;;;;5976268;23;20026;-83
2022/12/16 00:30:49;;;;;;;46.55;30.65;;;0.10;99.90;;;;;;5997147;23;20022;-82
2022/12/16 00:33:16;;;;;;;59.47;35.28;;;0.10;99.90;;;;;;5995701;23;20019;-82
2022/12/16 00:35:43;;;;;;;54.53;33.45;;;0.10;99.90;;;;;;5998003;23;20232;-83
2022/12/16 00:38:09;;;;;;;52.83;33.28;;;0.10;99.90;;;;;;5997559;23;20047;-83
2022/12/16 00:40:35;;;;;;;54.88;33.03;;;0.10;99.90;;;;;;6000042;23;20126;-82
2022/12/16 00:43:00;;;;;;;53.53;32.55;;;0.10;99.90;;;;;;5973462;23;20027;-82
2022/12/16 00:45:26;;;;;;;50.38;32.72;;;0.20;99.90;;;;;;5973684;23;20516;-83
2022/12/16 00:47:52;;;;;;;49.97;32.20;;;0.20;99.90;;;;;;5991930;23;20651;-82
2022/12/16 00:50:19;;;;;;;48.30;32.38;;;0.20;99.90;;;;;;6021389;23;20022;-83
2022/12/16 00:52:46;;;;;;;52.92;33.88;;;0.20;99.90;;;;;;5998506;23;20465;-83
2022/12/16 00:55:12;;;;;;;52.17;32.90;;;0.20;99.90;;;;;;5997578;23;20030;-82
2022/12/16 00:57:37;;;;;;;51.47;32.70;;;0.20;99.90;;;;;;5999700;23;20361;-83
2022/12/16 01:00:04;;;;;;;51.28;32.67;;;0.20;99.90;;;;;;5997179;23;20023;-83
2022/12/16 01:02:31;;;;;;;48.30;30.40;;;0.20;99.90;;;;;;5999210;23;20038;-83
2022/12/16 01:04:56;;;;;;;52.20;32.22;;;0.20;99.90;;;;;;6023550;23;20087;-82
2022/12/16 01:07:22;;;;;;;52.13;32.35;;;0.20;99.90;;;;;;5999938;23;20027;-83
2022/12/16 01:09:48;;;;;;;53.90;31.17;;;0.10;99.90;;;;;;6022966;23;20033;-83
2022/12/16 01:12:13;;;;;;;48.92;31.52;;;0.10;99.90;;;;;;6000644;23;20015;-83
2022/12/16 01:14:39;;;;;;;48.72;30.40;;;0.00;99.90;;;;;;6021449;23;20078;-82
2022/12/16 01:17:05;;;;;;;49.30;31.05;;;0.00;99.90;;;;;;6023651;23;20019;-83
2022/12/16 01:19:30;;;;;;;57.05;31.75;;;0.10;99.90;;;;;;5999300;23;20472;-82
2022/12/16 01:21:56;;;;;;;50.90;29.80;;;0.10;99.90;;;;;;6023433;23;20475;-82
2022/12/16 01:24:22;;;;;;;47.28;28.63;;;0.10;99.90;;;;;;6022997;23;20091;-82
2022/12/16 01:26:48;;;;;;;44.13;28.08;;;0.20;99.90;;;;;;5999953;23;20313;-82
2022/12/16 01:29:13;;;;;;;37.85;24.05;;;0.20;99.90;;;;;;6022029;23;20129;-82
2022/12/16 01:31:39;;;;;;;44.42;24.48;;;0.30;99.90;;;;;;5998863;23;20042;-83
2022/12/16 01:34:04;;;;;;;35.50;21.20;;;0.30;99.90;;;;;;6022771;23;20101;-83
2022/12/16 01:36:33;;;;;;;32.97;19.67;;;0.40;99.90;;;;;;6000067;23;20464;-82
2022/12/16 01:38:58;;;;;;;29.88;17.65;;;0.50;99.90;;;;;;6022720;23;20019;-82
2022/12/16 01:41:24;;;;;;;28.00;18.23;;;0.80;99.90;;;;;;5999626;23;20021;-82
2022/12/16 01:43:50;;;;;;;24.15;13.18;;;0.70;99.90;;;;;;5993885;23;20381;-81
2022/12/16 01:46:22;;;;;;;22.27;13.65;;;1.00;99.90;;;;;;6021755;23;20087;-82
2022/12/16 01:49:02;;;;;;;23.23;14.07;;;1.10;99.90;;;;;;5975901;23;20544;-82
2022/12/16 01:51:39;;;;;;;20.33;12.32;;;1.20;99.90;;;;;;5976112;23;20016;-81
2022/12/16 01:54:14;;;;;;;23.10;12.23;;;1.30;99.90;;;;;;5975726;23;20019;-82
2022/12/16 01:56:45;;;;;;;17.52;10.05;;;1.30;99.90;;;;;;5997929;23;20107;-82
2022/12/16 01:59:16;;;;;;;14.98;10.27;;;1.40;99.90;;;;;;5971238;23;20023;-81
2022/12/16 02:01:42;;;;;;;13.70;8.82;;;1.40;99.90;;;;;;5996693;23;20031;-81
2022/12/16 02:04:08;;;;;;;15.05;8.32;;;1.50;99.90;;;;;;6045306;23;20531;-82
2022/12/16 02:06:33;;;;;;;12.35;7.65;;;1.50;99.90;;;;;;6022693;23;20441;-81
2022/12/16 02:09:05;;;;;;;12.02;7.57;;;1.40;99.90;;;;;;5998869;23;20047;-81
2022/12/16 02:11:46;;;;;;;11.77;7.03;;;1.50;99.90;;;;;;5976857;23;20698;-82
2022/12/16 02:14:33;;;;;;;12.40;6.85;;;1.50;99.90;;;;;;6044459;23;20023;-81
2022/12/16 02:17:27;;;;;;;9.65;6.60;;;1.60;99.90;;;;;;6046946;23;20357;-81
2022/12/16 02:20:11;;;;;;;9.95;6.25;;;1.60;99.90;;;;;;5998515;23;20367;-81
2022/12/16 02:22:45;;;;;;;7.95;6.35;;;1.80;99.90;;;;;;5998628;23;20106;-81
2022/12/16 02:25:47;;;;;;;13.17;6.40;;;1.80;99.90;;;;;;5975647;23;20019;-81
2022/12/16 02:28:27;;;;;;;6.88;5.47;;;1.90;99.90;;;;;;5998430;23;20011;-81
2022/12/16 02:31:28;;;;;;;8.00;5.90;;;1.90;99.90;;;;;;6043658;23;20050;-81
2022/12/16 02:34:13;;;;;;;11.43;6.28;;;1.90;99.90;;;;;;5961009;23;20078;-80
2022/12/16 02:36:57;;;;;;;10.05;5.35;;;1.90;99.90;;;;;;6046566;23;20019;-81
2022/12/16 02:39:54;;;;;;;8.48;5.00;;;1.90;99.90;;;;;;6046582;23;20029;-80
2022/12/16 02:43:01;;;;;;;7.05;5.15;;;1.90;99.90;;;;;;5970079;23;20186;-82
2022/12/16 02:45:29;;;;;;;8.10;4.88;;;2.00;99.90;;;;;;5972964;23;20089;-81
2022/12/16 02:47:55;;;;;;;5.68;4.88;;;2.00;99.90;;;;;;5989014;23;20030;-80
2022/12/16 02:50:24;;;;;;;7.32;5.20;;;2.00;99.90;;;;;;6021754;23;20297;-80
2022/12/16 02:52:51;;;;;;;7.15;4.88;;;2.00;99.90;;;;;;6022005;23;20023;-81
2022/12/16 02:55:17;;;;;;;8.93;4.35;;;2.00;99.90;;;;;;6021733;23;20366;-81
2022/12/16 02:57:56;;;;;;;7.18;4.82;;;2.10;99.90;;;;;;5998750;23;20276;-81
2022/12/16 03:00:23;;;;;;;8.88;4.18;;;2.20;99.90;;;;;;6042136;23;20022;-80
2022/12/16 03:02:54;;;;;;;7.97;4.45;;;2.10;99.90;;;;;;5998031;23;20019;-81
2022/12/16 03:05:31;;;;;;;6.63;4.25;;;2.10;99.90;;;;;;6023270;23;20393;-81
2022/12/16 03:08:01;;;;;;;10.70;4.78;;;2.10;99.90;;;;;;6070513;23;20113;-80
2022/12/16 03:10:34;;;;;;;9.90;5.07;;;2.10;99.90;;;;;;6069545;23;20250;-80
2022/12/16 03:13:01;;;;;;;7.63;5.40;;;2.10;99.90;;;;;;5999878;23;20313;-81
2022/12/16 03:15:31;;;;;;;9.65;4.95;;;2.00;99.90;;;;;;6022114;23;20019;-80
2022/12/16 03:17:58;;;;;;;10.30;5.35;;;2.00;99.90;;;;;;6048296;23;20099;-80
2022/12/16 03:20:39;;;;;;;11.23;5.78;;;2.00;99.90;;;;;;6071418;23;20188;-81
2022/12/16 03:23:10;;;;;;;8.02;5.20;;;2.00;99.90;;;;;;6046811;23;20061;-81
2022/12/16 03:25:41;;;;;;;7.57;5.47;;;2.00;99.90;;;;;;6000430;23;20241;-81
2022/12/16 03:28:31;;;;;;;10.95;5.88;;;2.00;99.90;;;;;;6071488;23;20110;-80
2022/12/16 03:31:07;;;;;;;9.13;5.90;;;2.00;99.90;;;;;;6021288;23;20659;-81
2022/12/16 03:33:46;;;;;;;10.43;5.45;;;2.00;99.90;;;;;;6047902;23;20282;-80
2022/12/16 03:36:19;;;;;;;8.75;5.63;;;2.00;99.90;;;;;;6047494;23;20023;-81
2022/12/16 03:38:48;;;;;;;10.25;7.35;;;1.90;99.90;;;;;;6023064;23;20027;-81
2022/12/16 03:41:16;;;;;;;9.95;6.18;;;2.00;99.90;;;;;;6024083;23;20460;-80
2022/12/16 03:43:47;;;;;;;9.02;6.63;;;2.00;99.90;;;;;;6021817;23;20023;-80
2022/12/16 03:46:13;;;;;;;13.02;8.13;;;1.90;99.90;;;;;;6046500;23;20401;-81
2022/12/16 03:48:53;;;;;;;13.57;9.38;;;2.00;99.90;;;;;;6045250;23;20043;-80
2022/12/16 03:51:19;;;;;;;15.95;9.35;;;1.90;99.90;;;;;;5975121;23;20396;-80
2022/12/16 03:53:45;;;;;;;12.20;8.90;;;2.00;99.90;;;;;;6045080;23;20094;-80
2022/12/16 03:56:11;;;;;;;13.32;8.52;;;1.90;99.90;;;;;;6021528;23;20128;-81
2022/12/16 03:58:41;;;;;;;14.13;9.10;;;2.00;99.90;;;;;;5972415;23;20023;-80
2022/12/16 04:01:13;;;;;;;16.45;10.02;;;1.90;99.90;;;;;;5996868;23;20046;-81
2022/12/16 04:03:38;;;;;;;23.35;11.80;;;1.90;99.90;;;;;;5973924;23;20476;-80
2022/12/16 04:06:05;;;;;;;14.98;11.85;;;1.90;99.90;;;;;;5999117;23;20022;-80
2022/12/16 04:08:33;;;;;;;17.77;11.82;;;1.90;99.90;;;;;;5973021;23;20019;-81
2022/12/16 04:25:13;;;;;;;47.70;31.98;;;2.00;99.90;;;;;;5996818;23;20019;-80
2022/12/16 04:27:45;;;;;;;47.72;28.95;;;2.10;99.90;;;;;;5996758;23;20329;-80
2022/12/16 04:30:18;;;;;;;51.92;32.00;;;1.90;99.90;;;;;;5970994;23;20356;-80
